sensor_id;sensor_type;location;lat;lon;timestamp;pressure;altitude;pressure_sealevel;temperature;humidity
59759;BME280;61150;62.516;17.862;2022-09-03T00:00:24;102128.63;;;7.52;71.35
59759;BME280;61150;62.516;17.862;2022-09-03T00:02:59;102134.03;;;7.54;70.59
59759;BME280;61150;62.516;17.862;2022-09-03T00:05:36;102128.91;;;7.62;70.27
59759;BME280;61150;62.516;17.862;2022-09-03T00:08:09;102134.18;;;7.68;68.51
59759;BME280;61150;62.516;17.862;2022-09-03T00:10:45;102128.46;;;7.88;66.68
59759;BME280;61150;62.516;17.862;2022-09-03T00:13:22;102130.25;;;8.24;64.55
59759;BME280;61150;62.516;17.862;2022-09-03T00:15:52;102129.02;;;8.42;63.66
59759;BME280;61150;62.516;17.862;2022-09-03T00:18:26;102132.50;;;8.57;62.95
59759;BME280;61150;62.516;17.862;2022-09-03T00:20:58;102130.43;;;8.55;63.03
59759;BME280;61150;62.516;17.862;2022-09-03T00:23:29;102130.35;;;8.59;62.31
59759;BME280;61150;62.516;17.862;2022-09-03T00:26:13;102127.79;;;8.65;61.25
59759;BME280;61150;62.516;17.862;2022-09-03T00:28:46;102127.76;;;8.90;60.90
59759;BME280;61150;62.516;17.862;2022-09-03T00:31:19;102128.42;;;8.86;60.84
59759;BME280;61150;62.516;17.862;2022-09-03T00:33:51;102127.46;;;8.85;61.06
59759;BME280;61150;62.516;17.862;2022-09-03T00:36:29;102124.78;;;8.77;60.84
59759;BME280;61150;62.516;17.862;2022-09-03T00:38:59;102122.75;;;8.85;60.74
59759;BME280;61150;62.516;17.862;2022-09-03T00:41:34;102120.75;;;8.80;60.51
59759;BME280;61150;62.516;17.862;2022-09-03T00:44:32;102123.94;;;8.72;60.60
59759;BME280;61150;62.516;17.862;2022-09-03T00:47:10;102120.20;;;8.84;60.91
59759;BME280;61150;62.516;17.862;2022-09-03T00:49:49;102117.32;;;8.81;60.93
59759;BME280;61150;62.516;17.862;2022-09-03T00:52:34;102119.25;;;8.82;61.07
59759;BME280;61150;62.516;17.862;2022-09-03T00:55:12;102119.02;;;8.65;60.77
59759;BME280;61150;62.516;17.862;2022-09-03T00:57:53;102116.58;;;8.79;60.79
59759;BME280;61150;62.516;17.862;2022-09-03T01:03:05;102118.78;;;8.55;61.82
59759;BME280;61150;62.516;17.862;2022-09-03T01:05:46;102114.62;;;8.51;62.79
59759;BME280;61150;62.516;17.862;2022-09-03T01:08:32;102114.76;;;8.43;63.68
59759;BME280;61150;62.516;17.862;2022-09-03T01:11:18;102121.12;;;8.21;62.72
59759;BME280;61150;62.516;17.862;2022-09-03T01:13:56;102124.08;;;8.29;62.51
59759;BME280;61150;62.516;17.862;2022-09-03T01:16:35;102124.70;;;8.36;61.79
59759;BME280;61150;62.516;17.862;2022-09-03T01:19:23;102117.44;;;8.45;61.14
59759;BME280;61150;62.516;17.862;2022-09-03T01:22:11;102117.52;;;8.53;60.54
59759;BME280;61150;62.516;17.862;2022-09-03T01:25:04;102115.98;;;8.58;59.95
59759;BME280;61150;62.516;17.862;2022-09-03T01:27:45;102115.18;;;8.49;59.21
59759;BME280;61150;62.516;17.862;2022-09-03T01:30:18;102116.40;;;8.74;57.89
59759;BME280;61150;62.516;17.862;2022-09-03T01:32:52;102118.00;;;8.87;57.14
59759;BME280;61150;62.516;17.862;2022-09-03T01:35:28;102118.35;;;8.89;56.93
59759;BME280;61150;62.516;17.862;2022-09-03T01:38:08;102118.54;;;8.95;56.40
59759;BME280;61150;62.516;17.862;2022-09-03T01:40:47;102118.23;;;8.96;56.69
59759;BME280;61150;62.516;17.862;2022-09-03T01:43:30;102117.40;;;8.96;56.86
59759;BME280;61150;62.516;17.862;2022-09-03T01:46:03;102115.12;;;8.86;57.23
59759;BME280;61150;62.516;17.862;2022-09-03T01:48:41;102112.19;;;8.79;57.40
59759;BME280;61150;62.516;17.862;2022-09-03T01:51:17;102115.25;;;8.85;57.58
59759;BME280;61150;62.516;17.862;2022-09-03T01:54:01;102122.69;;;8.74;57.84
59759;BME280;61150;62.516;17.862;2022-09-03T01:56:47;102122.46;;;8.74;58.08
59759;BME280;61150;62.516;17.862;2022-09-03T01:59:22;102122.09;;;8.61;58.30
59759;BME280;61150;62.516;17.862;2022-09-03T02:02:12;102122.74;;;8.76;58.29
59759;BME280;61150;62.516;17.862;2022-09-03T02:04:55;102125.39;;;8.60;58.57
59759;BME280;61150;62.516;17.862;2022-09-03T02:07:25;102122.88;;;8.69;58.75
59759;BME280;61150;62.516;17.862;2022-09-03T02:09:56;102119.65;;;8.58;59.06
59759;BME280;61150;62.516;17.862;2022-09-03T02:12:27;102117.79;;;8.54;59.37
59759;BME280;61150;62.516;17.862;2022-09-03T02:14:59;102112.06;;;8.64;59.90
59759;BME280;61150;62.516;17.862;2022-09-03T02:17:29;102117.76;;;8.52;60.18
59759;BME280;61150;62.516;17.862;2022-09-03T02:19:58;102118.35;;;8.35;60.56
59759;BME280;61150;62.516;17.862;2022-09-03T02:22:31;102115.79;;;8.45;60.75
59759;BME280;61150;62.516;17.862;2022-09-03T02:25:01;102110.46;;;8.48;60.56
59759;BME280;61150;62.516;17.862;2022-09-03T02:27:30;102119.57;;;8.48;60.63
59759;BME280;61150;62.516;17.862;2022-09-03T02:29:59;102120.66;;;8.60;60.60
59759;BME280;61150;62.516;17.862;2022-09-03T02:32:28;102115.52;;;8.58;60.91
59759;BME280;61150;62.516;17.862;2022-09-03T02:34:57;102121.00;;;8.67;61.03
59759;BME280;61150;62.516;17.862;2022-09-03T02:37:25;102121.74;;;8.54;61.07
59759;BME280;61150;62.516;17.862;2022-09-03T02:39:54;102124.11;;;8.53;61.31
59759;BME280;61150;62.516;17.862;2022-09-03T02:42:23;102123.40;;;8.59;61.42
59759;BME280;61150;62.516;17.862;2022-09-03T02:44:56;102128.13;;;8.47;61.52
59759;BME280;61150;62.516;17.862;2022-09-03T02:47:30;102120.29;;;8.48;61.37
59759;BME280;61150;62.516;17.862;2022-09-03T02:49:59;102124.87;;;8.43;61.51
59759;BME280;61150;62.516;17.862;2022-09-03T02:52:28;102127.52;;;8.57;61.32
59759;BME280;61150;62.516;17.862;2022-09-03T02:54:57;102126.60;;;8.53;61.23
59759;BME280;61150;62.516;17.862;2022-09-03T02:57:26;102126.82;;;8.53;60.68
59759;BME280;61150;62.516;17.862;2022-09-03T02:59:55;102131.09;;;8.45;60.71
59759;BME280;61150;62.516;17.862;2022-09-03T03:02:24;102125.76;;;8.41;60.69
59759;BME280;61150;62.516;17.862;2022-09-03T03:04:53;102124.89;;;8.53;60.47
59759;BME280;61150;62.516;17.862;2022-09-03T03:07:22;102127.55;;;8.44;60.35
59759;BME280;61150;62.516;17.862;2022-09-03T03:09:51;102126.49;;;8.56;60.34
59759;BME280;61150;62.516;17.862;2022-09-03T03:12:20;102124.83;;;8.49;60.22
59759;BME280;61150;62.516;17.862;2022-09-03T03:14:49;102124.26;;;8.48;60.00
59759;BME280;61150;62.516;17.862;2022-09-03T03:17:18;102130.92;;;8.64;59.79
59759;BME280;61150;62.516;17.862;2022-09-03T03:19:47;102133.67;;;8.58;59.98
59759;BME280;61150;62.516;17.862;2022-09-03T03:22:16;102131.21;;;8.54;59.62
59759;BME280;61150;62.516;17.862;2022-09-03T03:24:45;102134.40;;;8.52;59.58
59759;BME280;61150;62.516;17.862;2022-09-03T03:27:14;102131.91;;;8.49;59.47
59759;BME280;61150;62.516;17.862;2022-09-03T03:29:43;102128.73;;;8.46;59.44
59759;BME280;61150;62.516;17.862;2022-09-03T03:32:12;102135.61;;;8.39;59.26
59759;BME280;61150;62.516;17.862;2022-09-03T03:34:41;102135.47;;;8.60;59.04
59759;BME280;61150;62.516;17.862;2022-09-03T03:37:10;102133.94;;;8.46;58.96
59759;BME280;61150;62.516;17.862;2022-09-03T03:39:39;102132.61;;;8.56;59.14
59759;BME280;61150;62.516;17.862;2022-09-03T03:42:08;102138.17;;;8.32;59.19
59759;BME280;61150;62.516;17.862;2022-09-03T03:44:37;102138.50;;;8.34;59.52
59759;BME280;61150;62.516;17.862;2022-09-03T03:47:06;102132.89;;;8.35;59.15
59759;BME280;61150;62.516;17.862;2022-09-03T03:49:35;102135.11;;;8.36;59.17
59759;BME280;61150;62.516;17.862;2022-09-03T03:52:04;102135.42;;;8.43;59.02
59759;BME280;61150;62.516;17.862;2022-09-03T03:54:33;102142.62;;;8.36;58.62
59759;BME280;61150;62.516;17.862;2022-09-03T03:57:02;102139.64;;;8.44;58.77
59759;BME280;61150;62.516;17.862;2022-09-03T03:59:31;102136.53;;;8.51;58.77
59759;BME280;61150;62.516;17.862;2022-09-03T04:02:56;102134.55;;;8.29;59.08
59759;BME280;61150;62.516;17.862;2022-09-03T04:05:26;102143.77;;;8.37;59.05
59759;BME280;61150;62.516;17.862;2022-09-03T04:08:00;102135.19;;;8.33;59.17
59759;BME280;61150;62.516;17.862;2022-09-03T04:10:28;102137.93;;;8.33;59.40
59759;BME280;61150;62.516;17.862;2022-09-03T04:12:57;102139.25;;;8.34;59.44
59759;BME280;61150;62.516;17.862;2022-09-03T04:15:26;102146.16;;;8.50;59.00
59759;BME280;61150;62.516;17.862;2022-09-03T04:17:55;102150.65;;;8.49;59.19
59759;BME280;61150;62.516;17.862;2022-09-03T04:20:24;102150.47;;;8.42;59.31
59759;BME280;61150;62.516;17.862;2022-09-03T04:22:53;102146.39;;;8.44;59.32
59759;BME280;61150;62.516;17.862;2022-09-03T04:25:22;102147.93;;;8.40;59.46
59759;BME280;61150;62.516;17.862;2022-09-03T04:27:51;102147.63;;;8.42;59.85
59759;BME280;61150;62.516;17.862;2022-09-03T04:30:20;102153.03;;;8.30;59.95
59759;BME280;61150;62.516;17.862;2022-09-03T04:32:49;102149.50;;;8.22;60.01
59759;BME280;61150;62.516;17.862;2022-09-03T04:35:18;102158.22;;;8.07;60.55
59759;BME280;61150;62.516;17.862;2022-09-03T04:37:47;102158.00;;;8.01;60.84
59759;BME280;61150;62.516;17.862;2022-09-03T04:40:16;102160.26;;;8.00;60.95
59759;BME280;61150;62.516;17.862;2022-09-03T04:42:45;102159.62;;;8.01;60.94
59759;BME280;61150;62.516;17.862;2022-09-03T04:45:14;102155.12;;;8.10;61.02
59759;BME280;61150;62.516;17.862;2022-09-03T04:47:43;102155.97;;;8.09;61.32
59759;BME280;61150;62.516;17.862;2022-09-03T04:50:12;102159.36;;;8.12;61.06
59759;BME280;61150;62.516;17.862;2022-09-03T04:52:41;102154.13;;;8.09;61.21
59759;BME280;61150;62.516;17.862;2022-09-03T04:55:10;102154.43;;;8.19;61.35
59759;BME280;61150;62.516;17.862;2022-09-03T04:57:39;102152.11;;;8.19;61.33
59759;BME280;61150;62.516;17.862;2022-09-03T05:00:09;102147.18;;;8.07;61.43
59759;BME280;61150;62.516;17.862;2022-09-03T05:02:39;102152.90;;;8.28;61.32
59759;BME280;61150;62.516;17.862;2022-09-03T05:05:08;102150.55;;;8.57;61.62
59759;BME280;61150;62.516;17.862;2022-09-03T05:07:37;102147.32;;;9.35;61.07
59759;BME280;61150;62.516;17.862;2022-09-03T05:10:08;102146.51;;;9.93;59.85
59759;BME280;61150;62.516;17.862;2022-09-03T05:12:36;102144.36;;;10.98;57.80
59759;BME280;61150;62.516;17.862;2022-09-03T05:15:06;102146.36;;;11.49;54.16
59759;BME280;61150;62.516;17.862;2022-09-03T05:17:34;102148.58;;;11.20;53.69
59759;BME280;61150;62.516;17.862;2022-09-03T05:20:05;102144.21;;;10.84;53.81
59759;BME280;61150;62.516;17.862;2022-09-03T05:22:32;102147.37;;;10.93;53.66
59759;BME280;61150;62.516;17.862;2022-09-03T05:25:01;102149.32;;;11.22;53.00
59759;BME280;61150;62.516;17.862;2022-09-03T05:27:30;102151.59;;;11.53;51.38
59759;BME280;61150;62.516;17.862;2022-09-03T05:29:59;102148.82;;;12.16;51.54
59759;BME280;61150;62.516;17.862;2022-09-03T05:32:29;102144.90;;;13.10;49.06
59759;BME280;61150;62.516;17.862;2022-09-03T05:34:57;102146.76;;;13.11;48.46
59759;BME280;61150;62.516;17.862;2022-09-03T05:37:26;102144.06;;;12.96;47.16
59759;BME280;61150;62.516;17.862;2022-09-03T05:39:55;102140.07;;;12.45;47.18
59759;BME280;61150;62.516;17.862;2022-09-03T05:42:24;102141.52;;;12.13;48.47
59759;BME280;61150;62.516;17.862;2022-09-03T05:44:53;102145.60;;;11.73;48.67
59759;BME280;61150;62.516;17.862;2022-09-03T05:47:22;102142.87;;;11.51;47.80
59759;BME280;61150;62.516;17.862;2022-09-03T05:49:50;102148.63;;;11.42;49.20
59759;BME280;61150;62.516;17.862;2022-09-03T05:52:19;102147.92;;;11.13;49.97
59759;BME280;61150;62.516;17.862;2022-09-03T05:54:48;102145.94;;;11.06;50.55
59759;BME280;61150;62.516;17.862;2022-09-03T05:57:17;102151.98;;;10.93;51.20
59759;BME280;61150;62.516;17.862;2022-09-03T05:59:46;102150.57;;;10.78;51.12
59759;BME280;61150;62.516;17.862;2022-09-03T06:02:15;102149.43;;;10.78;51.09
59759;BME280;61150;62.516;17.862;2022-09-03T06:04:44;102154.58;;;10.76;51.45
59759;BME280;61150;62.516;17.862;2022-09-03T06:07:13;102147.69;;;10.71;51.87
59759;BME280;61150;62.516;17.862;2022-09-03T06:09:42;102149.23;;;10.66;51.88
59759;BME280;61150;62.516;17.862;2022-09-03T06:12:11;102150.31;;;10.74;51.90
59759;BME280;61150;62.516;17.862;2022-09-03T06:14:40;102158.04;;;10.79;52.69
59759;BME280;61150;62.516;17.862;2022-09-03T06:17:08;102154.44;;;10.75;52.84
59759;BME280;61150;62.516;17.862;2022-09-03T06:19:37;102154.49;;;10.78;53.35
59759;BME280;61150;62.516;17.862;2022-09-03T06:22:06;102157.88;;;10.83;53.63
59759;BME280;61150;62.516;17.862;2022-09-03T06:24:35;102164.44;;;11.01;52.74
59759;BME280;61150;62.516;17.862;2022-09-03T06:27:04;102166.15;;;11.07;51.49
59759;BME280;61150;62.516;17.862;2022-09-03T06:29:33;102162.84;;;11.20;51.43
59759;BME280;61150;62.516;17.862;2022-09-03T06:32:02;102160.99;;;11.24;50.94
59759;BME280;61150;62.516;17.862;2022-09-03T06:34:31;102163.42;;;11.31;50.63
59759;BME280;61150;62.516;17.862;2022-09-03T06:37:00;102165.08;;;11.36;50.92
59759;BME280;61150;62.516;17.862;2022-09-03T06:39:29;102164.14;;;11.24;51.63
59759;BME280;61150;62.516;17.862;2022-09-03T06:41:58;102173.92;;;11.07;50.79
59759;BME280;61150;62.516;17.862;2022-09-03T06:44:26;102164.04;;;10.97;51.15
59759;BME280;61150;62.516;17.862;2022-09-03T06:46:55;102168.83;;;10.98;51.90
59759;BME280;61150;62.516;17.862;2022-09-03T06:49:24;102161.68;;;10.82;52.09
59759;BME280;61150;62.516;17.862;2022-09-03T06:51:53;102164.39;;;10.79;51.43
59759;BME280;61150;62.516;17.862;2022-09-03T06:54:22;102164.54;;;10.77;52.20
59759;BME280;61150;62.516;17.862;2022-09-03T06:56:51;102163.37;;;10.90;52.17
59759;BME280;61150;62.516;17.862;2022-09-03T06:59:20;102162.73;;;10.92;51.26
59759;BME280;61150;62.516;17.862;2022-09-03T07:02:59;102156.75;;;10.40;52.59
59759;BME280;61150;62.516;17.862;2022-09-03T07:05:28;102159.86;;;10.31;53.08
59759;BME280;61150;62.516;17.862;2022-09-03T07:07:57;102160.13;;;10.50;53.38
59759;BME280;61150;62.516;17.862;2022-09-03T07:10:26;102160.54;;;10.57;51.73
59759;BME280;61150;62.516;17.862;2022-09-03T07:12:55;102165.05;;;10.77;51.53
59759;BME280;61150;62.516;17.862;2022-09-03T07:15:24;102161.96;;;10.92;51.01
59759;BME280;61150;62.516;17.862;2022-09-03T07:17:52;102166.70;;;10.92;51.50
59759;BME280;61150;62.516;17.862;2022-09-03T07:20:21;102169.77;;;10.93;51.18
59759;BME280;61150;62.516;17.862;2022-09-03T07:22:53;102169.43;;;10.98;52.12
59759;BME280;61150;62.516;17.862;2022-09-03T07:25:24;102170.34;;;11.03;50.65
59759;BME280;61150;62.516;17.862;2022-09-03T07:27:52;102173.46;;;11.11;51.42
59759;BME280;61150;62.516;17.862;2022-09-03T07:30:20;102176.28;;;11.25;51.43
59759;BME280;61150;62.516;17.862;2022-09-03T07:32:49;102174.30;;;11.13;51.79
59759;BME280;61150;62.516;17.862;2022-09-03T07:35:18;102172.35;;;11.21;49.08
59759;BME280;61150;62.516;17.862;2022-09-03T07:37:47;102174.85;;;11.24;49.79
59759;BME280;61150;62.516;17.862;2022-09-03T07:40:16;102171.84;;;11.14;49.77
59759;BME280;61150;62.516;17.862;2022-09-03T07:42:45;102173.89;;;11.24;51.03
59759;BME280;61150;62.516;17.862;2022-09-03T07:45:14;102175.79;;;11.10;50.34
59759;BME280;61150;62.516;17.862;2022-09-03T07:47:46;102174.50;;;11.12;49.76
59759;BME280;61150;62.516;17.862;2022-09-03T07:50:15;102177.07;;;11.16;50.06
59759;BME280;61150;62.516;17.862;2022-09-03T07:52:44;102180.49;;;11.28;48.52
59759;BME280;61150;62.516;17.862;2022-09-03T07:55:13;102178.67;;;11.44;47.99
59759;BME280;61150;62.516;17.862;2022-09-03T07:57:42;102180.01;;;11.48;47.24
59759;BME280;61150;62.516;17.862;2022-09-03T08:00:12;102180.75;;;11.52;48.06
59759;BME280;61150;62.516;17.862;2022-09-03T08:02:41;102178.77;;;11.57;47.76
59759;BME280;61150;62.516;17.862;2022-09-03T08:05:10;102177.42;;;11.69;46.10
59759;BME280;61150;62.516;17.862;2022-09-03T08:07:39;102172.83;;;11.89;44.71
59759;BME280;61150;62.516;17.862;2022-09-03T08:10:08;102171.53;;;12.32;44.84
59759;BME280;61150;62.516;17.862;2022-09-03T08:12:37;102171.09;;;12.53;44.30
59759;BME280;61150;62.516;17.862;2022-09-03T08:15:07;102178.20;;;12.75;45.13
59759;BME280;61150;62.516;17.862;2022-09-03T08:17:35;102176.03;;;12.97;41.64
59759;BME280;61150;62.516;17.862;2022-09-03T08:20:04;102173.03;;;13.27;44.58
59759;BME280;61150;62.516;17.862;2022-09-03T08:22:32;102172.35;;;13.70;43.60
59759;BME280;61150;62.516;17.862;2022-09-03T08:25:01;102168.65;;;13.80;43.96
59759;BME280;61150;62.516;17.862;2022-09-03T08:27:30;102165.23;;;14.02;41.35
59759;BME280;61150;62.516;17.862;2022-09-03T08:29:59;102169.06;;;13.90;42.34
59759;BME280;61150;62.516;17.862;2022-09-03T08:32:28;102172.03;;;13.85;40.26
59759;BME280;61150;62.516;17.862;2022-09-03T08:34:56;102169.79;;;13.87;43.25
59759;BME280;61150;62.516;17.862;2022-09-03T08:37:25;102172.42;;;13.98;43.58
59759;BME280;61150;62.516;17.862;2022-09-03T08:39:54;102173.38;;;14.29;41.94
59759;BME280;61150;62.516;17.862;2022-09-03T08:42:32;102173.01;;;14.39;41.31
59759;BME280;61150;62.516;17.862;2022-09-03T08:45:09;102171.75;;;14.94;41.00
59759;BME280;61150;62.516;17.862;2022-09-03T08:47:43;102168.56;;;15.45;41.22
59759;BME280;61150;62.516;17.862;2022-09-03T08:50:22;102169.22;;;16.00;39.22
59759;BME280;61150;62.516;17.862;2022-09-03T08:52:55;102177.04;;;16.45;37.94
59759;BME280;61150;62.516;17.862;2022-09-03T08:55:27;102174.27;;;16.68;37.61
59759;BME280;61150;62.516;17.862;2022-09-03T08:58:01;102178.82;;;16.95;36.19
59759;BME280;61150;62.516;17.862;2022-09-03T09:00:40;102179.06;;;17.00;35.10
59759;BME280;61150;62.516;17.862;2022-09-03T09:03:27;102172.99;;;17.00;34.46
59759;BME280;61150;62.516;17.862;2022-09-03T09:06:07;102175.22;;;16.98;37.96
59759;BME280;61150;62.516;17.862;2022-09-03T09:08:44;102176.52;;;17.23;35.51
59759;BME280;61150;62.516;17.862;2022-09-03T09:11:22;102173.26;;;17.23;34.45
59759;BME280;61150;62.516;17.862;2022-09-03T09:13:58;102172.09;;;17.31;35.28
59759;BME280;61150;62.516;17.862;2022-09-03T09:16:35;102166.49;;;17.23;34.15
59759;BME280;61150;62.516;17.862;2022-09-03T09:19:19;102175.79;;;17.20;33.13
59759;BME280;61150;62.516;17.862;2022-09-03T09:21:53;102175.48;;;17.15;32.51
59759;BME280;61150;62.516;17.862;2022-09-03T09:24:26;102179.67;;;16.42;32.75
59759;BME280;61150;62.516;17.862;2022-09-03T09:26:57;102175.84;;;16.05;33.44
59759;BME280;61150;62.516;17.862;2022-09-03T09:29:31;102180.88;;;15.62;33.82
59759;BME280;61150;62.516;17.862;2022-09-03T09:32:08;102178.33;;;15.31;34.24
59759;BME280;61150;62.516;17.862;2022-09-03T09:34:38;102173.71;;;15.31;35.69
59759;BME280;61150;62.516;17.862;2022-09-03T09:37:09;102172.23;;;15.61;38.57
59759;BME280;61150;62.516;17.862;2022-09-03T09:39:37;102164.18;;;15.91;35.61
59759;BME280;61150;62.516;17.862;2022-09-03T09:42:07;102166.11;;;16.13;36.19
59759;BME280;61150;62.516;17.862;2022-09-03T09:44:36;102161.50;;;16.21;34.76
59759;BME280;61150;62.516;17.862;2022-09-03T09:47:09;102166.23;;;16.27;35.17
59759;BME280;61150;62.516;17.862;2022-09-03T09:49:51;102164.43;;;16.45;35.29
59759;BME280;61150;62.516;17.862;2022-09-03T09:52:22;102164.72;;;16.49;35.10
59759;BME280;61150;62.516;17.862;2022-09-03T09:54:52;102165.33;;;16.54;35.08
59759;BME280;61150;62.516;17.862;2022-09-03T09:57:22;102167.27;;;16.63;33.53
59759;BME280;61150;62.516;17.862;2022-09-03T10:02:56;102168.49;;;16.86;32.94
59759;BME280;61150;62.516;17.862;2022-09-03T10:05:26;102163.18;;;16.84;32.76
59759;BME280;61150;62.516;17.862;2022-09-03T10:07:56;102171.97;;;17.06;32.13
59759;BME280;61150;62.516;17.862;2022-09-03T10:10:25;102170.71;;;17.09;34.13
59759;BME280;61150;62.516;17.862;2022-09-03T10:12:57;102169.10;;;17.23;34.41
59759;BME280;61150;62.516;17.862;2022-09-03T10:15:31;102175.72;;;17.34;34.55
59759;BME280;61150;62.516;17.862;2022-09-03T10:18:08;102171.39;;;17.39;35.94
59759;BME280;61150;62.516;17.862;2022-09-03T10:20:43;102168.59;;;17.60;34.97
59759;BME280;61150;62.516;17.862;2022-09-03T10:23:17;102170.53;;;17.58;35.66
59759;BME280;61150;62.516;17.862;2022-09-03T10:25:56;102172.48;;;17.84;35.04
59759;BME280;61150;62.516;17.862;2022-09-03T10:28:29;102171.30;;;17.99;33.37
59759;BME280;61150;62.516;17.862;2022-09-03T10:31:17;102173.75;;;17.61;34.29
59759;BME280;61150;62.516;17.862;2022-09-03T10:33:54;102174.00;;;17.56;32.36
59759;BME280;61150;62.516;17.862;2022-09-03T10:36:24;102176.34;;;17.36;32.50
59759;BME280;61150;62.516;17.862;2022-09-03T10:39:03;102173.36;;;16.84;33.17
59759;BME280;61150;62.516;17.862;2022-09-03T10:41:43;102187.04;;;16.45;33.42
59759;BME280;61150;62.516;17.862;2022-09-03T10:44:25;102183.68;;;16.16;33.29
59759;BME280;61150;62.516;17.862;2022-09-03T10:47:08;102185.00;;;15.72;34.45
59759;BME280;61150;62.516;17.862;2022-09-03T10:49:49;102188.00;;;15.55;35.20
59759;BME280;61150;62.516;17.862;2022-09-03T10:52:27;102186.13;;;15.47;36.03
59759;BME280;61150;62.516;17.862;2022-09-03T10:55:11;102182.92;;;15.34;35.69
59759;BME280;61150;62.516;17.862;2022-09-03T10:57:50;102187.38;;;15.24;35.87
59759;BME280;61150;62.516;17.862;2022-09-03T11:00:22;102191.10;;;15.28;35.72
59759;BME280;61150;62.516;17.862;2022-09-03T11:03:34;102192.63;;;15.27;36.76
59759;BME280;61150;62.516;17.862;2022-09-03T11:06:11;102189.87;;;15.37;39.17
59759;BME280;61150;62.516;17.862;2022-09-03T11:08:47;102194.69;;;15.49;35.17
59759;BME280;61150;62.516;17.862;2022-09-03T11:11:20;102192.19;;;15.29;35.08
59759;BME280;61150;62.516;17.862;2022-09-03T11:13:53;102188.07;;;15.28;36.60
59759;BME280;61150;62.516;17.862;2022-09-03T11:16:27;102188.87;;;15.30;37.32
59759;BME280;61150;62.516;17.862;2022-09-03T11:19:02;102196.26;;;15.40;37.04
59759;BME280;61150;62.516;17.862;2022-09-03T11:21:34;102189.91;;;15.27;36.61
59759;BME280;61150;62.516;17.862;2022-09-03T11:24:08;102183.31;;;15.20;37.69
59759;BME280;61150;62.516;17.862;2022-09-03T11:26:40;102184.81;;;15.10;37.36
59759;BME280;61150;62.516;17.862;2022-09-03T11:29:15;102184.93;;;15.01;37.63
59759;BME280;61150;62.516;17.862;2022-09-03T11:31:55;102188.40;;;14.66;38.90
59759;BME280;61150;62.516;17.862;2022-09-03T11:34:28;102189.00;;;14.54;38.64
59759;BME280;61150;62.516;17.862;2022-09-03T11:37:06;102183.58;;;14.85;38.76
59759;BME280;61150;62.516;17.862;2022-09-03T11:39:43;102187.19;;;14.97;36.49
59759;BME280;61150;62.516;17.862;2022-09-03T11:42:24;102190.76;;;14.99;37.39
59759;BME280;61150;62.516;17.862;2022-09-03T11:44:59;102193.63;;;15.03;38.08
59759;BME280;61150;62.516;17.862;2022-09-03T11:47:38;102196.76;;;15.09;39.15
59759;BME280;61150;62.516;17.862;2022-09-03T11:50:16;102200.35;;;14.94;37.38
59759;BME280;61150;62.516;17.862;2022-09-03T11:52:45;102205.99;;;14.99;38.40
59759;BME280;61150;62.516;17.862;2022-09-03T11:55:26;102204.59;;;14.90;37.62
59759;BME280;61150;62.516;17.862;2022-09-03T11:57:55;102205.01;;;15.00;38.92
59759;BME280;61150;62.516;17.862;2022-09-03T12:00:24;102200.69;;;14.80;39.19
59759;BME280;61150;62.516;17.862;2022-09-03T12:02:55;102199.52;;;14.92;38.93
59759;BME280;61150;62.516;17.862;2022-09-03T12:05:30;102204.13;;;15.06;39.69
59759;BME280;61150;62.516;17.862;2022-09-03T12:08:11;102198.67;;;15.26;39.62
59759;BME280;61150;62.516;17.862;2022-09-03T12:10:52;102196.57;;;15.12;39.28
59759;BME280;61150;62.516;17.862;2022-09-03T12:13:34;102198.25;;;15.12;38.42
59759;BME280;61150;62.516;17.862;2022-09-03T12:16:18;102194.88;;;15.75;35.97
59759;BME280;61150;62.516;17.862;2022-09-03T12:18:53;102190.08;;;16.10;35.32
59759;BME280;61150;62.516;17.862;2022-09-03T12:21:24;102186.55;;;16.23;36.43
59759;BME280;61150;62.516;17.862;2022-09-03T12:23:53;102190.49;;;16.58;34.66
59759;BME280;61150;62.516;17.862;2022-09-03T12:26:24;102190.83;;;16.54;35.78
59759;BME280;61150;62.516;17.862;2022-09-03T12:28:55;102192.01;;;16.25;35.95
59759;BME280;61150;62.516;17.862;2022-09-03T12:31:25;102191.36;;;16.13;36.08
59759;BME280;61150;62.516;17.862;2022-09-03T12:33:55;102189.75;;;15.81;36.61
59759;BME280;61150;62.516;17.862;2022-09-03T12:36:26;102187.41;;;15.60;37.84
59759;BME280;61150;62.516;17.862;2022-09-03T12:39:07;102187.46;;;15.29;37.38
59759;BME280;61150;62.516;17.862;2022-09-03T12:41:37;102192.80;;;15.11;37.61
59759;BME280;61150;62.516;17.862;2022-09-03T12:44:09;102193.12;;;15.16;36.25
59759;BME280;61150;62.516;17.862;2022-09-03T12:46:38;102188.06;;;15.24;36.94
59759;BME280;61150;62.516;17.862;2022-09-03T12:49:13;102187.47;;;15.15;37.67
59759;BME280;61150;62.516;17.862;2022-09-03T12:51:42;102189.01;;;15.04;36.81
59759;BME280;61150;62.516;17.862;2022-09-03T12:54:11;102191.03;;;15.06;38.37
59759;BME280;61150;62.516;17.862;2022-09-03T12:56:41;102188.40;;;15.07;38.23
59759;BME280;61150;62.516;17.862;2022-09-03T12:59:14;102186.51;;;14.92;36.83
59759;BME280;61150;62.516;17.862;2022-09-03T13:03:03;102196.27;;;14.79;38.12
59759;BME280;61150;62.516;17.862;2022-09-03T13:05:35;102194.51;;;14.50;39.02
59759;BME280;61150;62.516;17.862;2022-09-03T13:08:09;102194.88;;;14.17;39.10
59759;BME280;61150;62.516;17.862;2022-09-03T13:10:42;102191.47;;;14.04;39.11
59759;BME280;61150;62.516;17.862;2022-09-03T13:13:20;102189.87;;;13.87;39.06
59759;BME280;61150;62.516;17.862;2022-09-03T13:18:18;102192.73;;;13.87;39.16
59759;BME280;61150;62.516;17.862;2022-09-03T13:21:02;102188.30;;;13.82;40.98